Morley, United Kingdom
Current Conditions -  °F | °C
As of 10:20 PM on Saturday 20 Dec 2014 (Local Time) from EGNM Reporting Station
Few Clouds Few Clouds  
Wind Chill:   Ceiling: Unl
Heat Index:   Visibility: 6mi
Dew Point:   Wind: 18mph
Humidity: 93%   Direction: 270°W
Pressure: 30.27"   Gusts: 30mph
Location:  53.74°N, 1.6°W
Report Text: EGNM 202220Z 27016G26KT 9999 FEW025 06/05 Q1025
Loading
Personal Weather Stations






























Interactive Weather Map New forecast layout! Learn more

10-Day Weather Forecast

Advertisements
Track Severe Weather on mobile